createdAt,value
2018-06-14T00:01:33.169Z,12.40
2018-06-14T00:04:02.711Z,12.40
2018-06-14T00:06:32.238Z,12.30
2018-06-14T00:09:01.785Z,12.30
2018-06-14T00:11:31.240Z,12.30
2018-06-14T00:14:00.728Z,12.30
2018-06-14T00:16:30.314Z,12.30
2018-06-14T00:18:59.778Z,12.40
2018-06-14T00:21:29.311Z,12.30
2018-06-14T00:23:58.821Z,12.40
2018-06-14T00:26:28.287Z,12.40
2018-06-14T00:28:57.772Z,12.30
2018-06-14T00:31:27.291Z,12.30
2018-06-14T00:33:56.775Z,12.30
2018-06-14T00:36:26.251Z,12.40
2018-06-14T00:38:55.739Z,12.40
2018-06-14T00:41:25.362Z,12.40
2018-06-14T00:43:54.841Z,12.40
2018-06-14T00:46:24.337Z,12.40
2018-06-14T00:48:53.827Z,12.40
2018-06-14T00:51:23.327Z,12.40
2018-06-14T00:53:52.811Z,12.40
2018-06-14T00:56:22.362Z,12.40
2018-06-14T00:58:51.867Z,12.40
2018-06-14T01:01:21.428Z,12.40
2018-06-14T01:03:50.892Z,12.40
2018-06-14T01:06:20.384Z,12.40
2018-06-14T01:08:49.842Z,12.40
2018-06-14T01:11:19.307Z,12.30
2018-06-14T01:13:48.776Z,12.30
2018-06-14T01:16:18.246Z,12.30
2018-06-14T01:18:47.747Z,12.30
2018-06-14T01:21:17.224Z,12.20
2018-06-14T01:23:46.692Z,12.30
2018-06-14T01:26:16.157Z,12.20
2018-06-14T01:28:45.651Z,12.20
2018-06-14T01:31:15.167Z,12.20
2018-06-14T01:33:44.667Z,12.20
2018-06-14T01:36:14.168Z,12.30
2018-06-14T01:38:43.653Z,12.30
2018-06-14T01:41:13.146Z,12.30
2018-06-14T01:43:42.621Z,12.30
2018-06-14T01:46:12.163Z,12.30
2018-06-14T01:48:42.038Z,12.30
2018-06-14T01:51:11.558Z,12.20
2018-06-14T01:53:40.996Z,12.30
2018-06-14T01:56:10.484Z,12.30
2018-06-14T01:58:39.963Z,12.20
2018-06-14T02:01:09.438Z,12.10
2018-06-14T02:03:38.948Z,12.10
2018-06-14T02:06:08.427Z,12.10
2018-06-14T02:08:37.907Z,12.10
2018-06-14T02:11:07.416Z,12.20
2018-06-14T02:13:36.934Z,12.20
2018-06-14T02:16:08.854Z,12.20
2018-06-14T02:18:39.831Z,12.20
2018-06-14T02:21:09.624Z,12.30
2018-06-14T02:23:39.088Z,12.30
2018-06-14T02:26:08.575Z,12.30
2018-06-14T02:28:38.043Z,12.30
2018-06-14T02:31:07.569Z,12.30
2018-06-14T02:33:37.028Z,12.30
2018-06-14T02:36:06.538Z,12.30
2018-06-14T02:38:36.071Z,12.30
2018-06-14T02:41:05.630Z,12.20
2018-06-14T02:43:35.138Z,12.20
2018-06-14T02:46:04.851Z,12.20
2018-06-14T02:48:34.337Z,12.20
2018-06-14T02:51:03.924Z,12.20
2018-06-14T02:53:33.402Z,12.20
2018-06-14T02:56:02.883Z,12.20
2018-06-14T02:58:32.376Z,12.20
2018-06-14T03:01:01.867Z,12.20
2018-06-14T03:03:31.367Z,12.20
2018-06-14T03:06:00.858Z,12.20
2018-06-14T03:08:30.447Z,12.10
2018-06-14T03:10:59.959Z,12.10
2018-06-14T03:13:29.429Z,12.10
2018-06-14T03:15:58.885Z,12.10
2018-06-14T03:18:28.313Z,12.10
2018-06-14T03:20:57.806Z,12.00
2018-06-14T03:23:27.305Z,12.00
2018-06-14T03:25:56.871Z,12.00
2018-06-14T03:28:26.364Z,12.00
2018-06-14T03:30:55.843Z,12.10
2018-06-14T03:33:25.386Z,12.10
2018-06-14T03:35:54.861Z,12.20
2018-06-14T03:38:25.220Z,12.20
2018-06-14T03:40:54.926Z,12.20
2018-06-14T03:43:24.515Z,12.20
2018-06-14T03:45:53.984Z,12.10
2018-06-14T03:48:23.450Z,12.10
2018-06-14T03:50:52.930Z,12.20
2018-06-14T03:53:22.408Z,12.20
2018-06-14T03:55:51.912Z,12.10
2018-06-14T03:58:21.494Z,12.20
2018-06-14T04:00:50.947Z,12.20
2018-06-14T04:03:20.428Z,12.10
2018-06-14T04:05:50.037Z,12.20
2018-06-14T04:08:19.510Z,12.20
2018-06-14T04:10:49.103Z,12.20
2018-06-14T04:13:18.593Z,12.30
2018-06-14T04:15:48.064Z,12.30
2018-06-14T04:18:18.114Z,12.40
2018-06-14T04:20:47.604Z,12.50
2018-06-14T04:23:17.114Z,12.50
2018-06-14T04:25:46.592Z,12.60
2018-06-14T04:28:16.016Z,12.50
2018-06-14T04:30:45.507Z,12.60
2018-06-14T04:33:15.014Z,12.60
2018-06-14T04:35:44.483Z,12.60
2018-06-14T04:38:13.977Z,12.60
2018-06-14T04:40:43.471Z,12.50
2018-06-14T04:43:12.971Z,12.50
2018-06-14T04:45:42.427Z,12.50
2018-06-14T04:48:11.963Z,12.60
2018-06-14T04:50:41.444Z,12.60
2018-06-14T04:53:10.931Z,12.70
2018-06-14T04:55:40.403Z,12.70
2018-06-14T04:58:09.883Z,12.80
2018-06-14T05:00:39.394Z,12.80
2018-06-14T05:03:08.876Z,12.90
2018-06-14T05:05:38.310Z,12.90
2018-06-14T05:08:07.817Z,13.00
2018-06-14T05:10:37.367Z,13.00
2018-06-14T05:13:06.894Z,13.00
2018-06-14T05:15:36.363Z,13.10
2018-06-14T05:18:05.973Z,13.20
2018-06-14T05:20:35.415Z,13.20
2018-06-14T05:23:04.932Z,13.30
2018-06-14T05:25:34.448Z,13.40
2018-06-14T05:28:03.916Z,13.40
2018-06-14T05:30:33.627Z,13.50
2018-06-14T05:33:03.085Z,13.60
2018-06-14T05:35:32.560Z,13.60
2018-06-14T05:38:02.060Z,13.70
2018-06-14T05:40:31.707Z,13.80
2018-06-14T05:43:01.302Z,13.80
2018-06-14T05:45:30.802Z,13.90
2018-06-14T05:48:00.271Z,14.00
2018-06-14T05:50:29.770Z,14.10
2018-06-14T05:52:59.237Z,14.10
2018-06-14T05:55:28.714Z,14.20
2018-06-14T05:57:58.207Z,14.20
2018-06-14T06:00:27.682Z,14.20
2018-06-14T06:02:57.199Z,14.30
2018-06-14T06:05:26.686Z,14.30
2018-06-14T06:07:56.255Z,14.40
2018-06-14T06:10:25.760Z,14.40
2018-06-14T06:12:55.341Z,14.40
2018-06-14T06:15:24.851Z,14.50
2018-06-14T06:17:54.327Z,14.50
2018-06-14T06:20:23.868Z,14.50
2018-06-14T06:22:53.467Z,14.60
2018-06-14T06:25:22.999Z,14.70
2018-06-14T06:27:52.539Z,14.80
2018-06-14T06:30:22.006Z,14.90
2018-06-14T06:32:51.524Z,15.20
2018-06-14T06:35:20.987Z,15.30
2018-06-14T06:37:50.499Z,15.40
2018-06-14T06:40:20.007Z,15.40
2018-06-14T06:42:49.499Z,15.40
2018-06-14T06:45:19.060Z,15.50
2018-06-14T06:47:48.562Z,15.70
2018-06-14T06:50:18.060Z,15.80
2018-06-14T06:52:47.641Z,15.80
2018-06-14T06:55:17.142Z,15.70
2018-06-14T06:57:46.679Z,15.80
2018-06-14T07:00:16.258Z,15.80
2018-06-14T07:02:45.772Z,15.80
2018-06-14T07:05:15.311Z,16.00
2018-06-14T07:07:44.800Z,16.10
2018-06-14T07:10:14.337Z,16.20
2018-06-14T07:12:43.935Z,16.10
2018-06-14T07:15:13.424Z,16.20
2018-06-14T07:17:42.959Z,16.20
2018-06-14T07:20:12.513Z,16.20
2018-06-14T07:22:42.011Z,16.20
2018-06-14T07:25:11.501Z,16.30
2018-06-14T07:27:41.007Z,16.30
2018-06-14T07:30:10.506Z,16.40
2018-06-14T07:32:40.013Z,16.30
2018-06-14T07:35:09.567Z,16.40
2018-06-14T07:37:39.091Z,16.40
2018-06-14T07:40:08.675Z,16.40
2018-06-14T07:42:38.195Z,16.40
2018-06-14T07:45:07.673Z,16.50
2018-06-14T07:47:37.173Z,16.50
2018-06-14T07:50:06.697Z,16.50
2018-06-14T07:52:36.188Z,16.50
2018-06-14T07:55:05.848Z,16.60
2018-06-14T07:57:35.316Z,16.70
2018-06-14T08:00:04.967Z,16.80
2018-06-14T08:02:34.477Z,16.80
2018-06-14T08:05:04.025Z,16.90
2018-06-14T08:07:33.503Z,17.00
2018-06-14T08:10:03.070Z,17.10
2018-06-14T08:12:32.612Z,17.20
2018-06-14T08:15:02.187Z,17.20
2018-06-14T08:17:31.691Z,17.20
2018-06-14T08:20:01.276Z,17.20
2018-06-14T08:22:30.783Z,17.30
2018-06-14T08:25:00.264Z,17.30
2018-06-14T08:27:29.735Z,17.30
2018-06-14T08:29:59.290Z,17.40
2018-06-14T08:32:28.761Z,17.50
2018-06-14T08:34:58.242Z,17.60
2018-06-14T08:37:29.547Z,17.60
2018-06-14T08:39:59.377Z,17.60
2018-06-14T08:42:28.886Z,17.50
2018-06-14T08:44:58.383Z,17.40
2018-06-14T08:47:27.966Z,17.40
2018-06-14T08:49:57.479Z,17.50
2018-06-14T08:52:26.955Z,17.60
2018-06-14T08:54:56.483Z,17.60
2018-06-14T08:57:26.065Z,17.70
2018-06-14T08:59:55.577Z,17.70
2018-06-14T09:02:25.121Z,17.70
2018-06-14T09:04:54.640Z,17.60
2018-06-14T09:09:53.296Z,17.70
2018-06-14T09:12:22.803Z,17.70
2018-06-14T09:14:52.324Z,17.70
2018-06-14T09:17:22.034Z,17.70
2018-06-14T09:19:51.540Z,17.70
2018-06-14T09:22:21.034Z,17.80
2018-06-14T09:24:50.495Z,17.70
2018-06-14T09:27:19.979Z,17.70
2018-06-14T09:29:49.521Z,17.70
2018-06-14T09:32:18.999Z,17.80
2018-06-14T09:34:48.552Z,17.80
2018-06-14T09:37:18.104Z,17.90
2018-06-14T09:39:47.603Z,18.10
2018-06-14T09:42:17.102Z,18.20
2018-06-14T09:47:15.693Z,18.30
2018-06-14T09:49:45.217Z,18.40
2018-06-14T09:52:14.690Z,18.40
2018-06-14T09:54:44.207Z,18.50
2018-06-14T09:57:13.713Z,18.60
2018-06-14T09:59:43.180Z,18.60
2018-06-14T10:02:12.720Z,18.60
2018-06-14T10:04:42.269Z,18.50
2018-06-14T10:07:11.834Z,18.60
2018-06-14T10:09:41.359Z,18.70
2018-06-14T10:12:10.847Z,18.60
2018-06-14T10:14:40.340Z,18.70
2018-06-14T10:17:09.831Z,18.90
2018-06-14T10:19:39.318Z,19.00
2018-06-14T10:22:08.817Z,19.10
2018-06-14T10:24:38.387Z,19.20
2018-06-14T10:27:07.920Z,19.30
2018-06-14T10:29:37.430Z,19.30
2018-06-14T10:32:06.919Z,19.20
2018-06-14T10:34:36.407Z,18.70
2018-06-14T10:37:05.948Z,18.70
2018-06-14T10:39:35.439Z,18.80
2018-06-14T10:42:04.991Z,18.90
2018-06-14T10:44:34.462Z,19.00
2018-06-14T10:47:03.978Z,19.00
2018-06-14T10:49:33.475Z,19.00
2018-06-14T10:52:02.996Z,18.90
2018-06-14T10:54:32.590Z,19.00
2018-06-14T10:57:02.079Z,19.00
2018-06-14T10:59:31.573Z,18.90
2018-06-14T11:02:01.084Z,18.80
2018-06-14T11:04:30.549Z,18.80
2018-06-14T11:07:00.078Z,18.80
2018-06-14T11:09:29.567Z,18.80
2018-06-14T11:11:59.169Z,18.90
2018-06-14T11:14:28.698Z,18.80
2018-06-14T11:16:58.234Z,18.80
2018-06-14T11:19:27.794Z,18.70
2018-06-14T11:21:57.305Z,18.80
2018-06-14T11:24:26.778Z,18.70
2018-06-14T11:26:56.471Z,18.70
2018-06-14T11:29:26.060Z,18.70
2018-06-14T11:31:55.616Z,18.60
2018-06-14T11:34:25.150Z,18.60
2018-06-14T11:36:54.888Z,18.50
2018-06-14T11:39:24.476Z,18.60
2018-06-14T11:41:54.000Z,18.30
2018-06-14T11:44:23.541Z,18.30
2018-06-14T11:46:53.757Z,18.40
2018-06-14T11:49:23.256Z,18.50
2018-06-14T11:51:52.776Z,18.40
2018-06-14T11:56:51.683Z,18.70
2018-06-14T11:59:21.176Z,18.90
2018-06-14T12:01:50.719Z,19.20
2018-06-14T12:04:20.206Z,19.30
2018-06-14T12:06:49.754Z,19.70
2018-06-14T12:09:19.326Z,20.10
2018-06-14T12:11:48.848Z,20.30
2018-06-14T12:14:18.355Z,20.30
2018-06-14T12:19:16.920Z,20.40
2018-06-14T12:21:46.445Z,20.60
2018-06-14T12:24:15.903Z,20.70
2018-06-14T12:26:45.492Z,20.90
2018-06-14T12:29:15.032Z,21.10
2018-06-14T12:31:44.601Z,21.40
2018-06-14T12:34:14.159Z,21.60
2018-06-14T12:36:43.704Z,21.60
2018-06-14T12:39:13.262Z,21.50
2018-06-14T12:41:42.758Z,21.30
2018-06-14T12:44:12.398Z,21.20
2018-06-14T12:46:41.903Z,21.00
2018-06-14T12:49:11.531Z,20.90
2018-06-14T12:51:41.072Z,20.70
2018-06-14T12:54:10.610Z,20.90
2018-06-14T12:56:40.189Z,21.10
2018-06-14T12:59:09.721Z,21.20
2018-06-14T13:01:39.301Z,21.20
2018-06-14T13:04:09.281Z,21.20
2018-06-14T13:06:38.795Z,21.00
2018-06-14T13:09:09.904Z,21.10
2018-06-14T13:11:39.485Z,21.40
2018-06-14T13:14:09.304Z,21.60
2018-06-14T13:19:07.966Z,21.00
2018-06-14T13:21:37.516Z,20.90
2018-06-14T13:24:07.002Z,21.00
2018-06-14T13:26:36.548Z,21.20
2018-06-14T13:29:06.172Z,21.20
2018-06-14T13:31:35.902Z,21.30
2018-06-14T13:34:05.467Z,21.40
2018-06-14T13:36:35.284Z,21.30
2018-06-14T13:39:06.600Z,21.30
2018-06-14T13:41:36.155Z,21.30
2018-06-14T13:44:05.739Z,21.20
2018-06-14T13:46:39.606Z,21.00
2018-06-14T13:49:09.456Z,21.00
2018-06-14T13:51:39.036Z,20.90
2018-06-14T13:54:08.838Z,20.70
2018-06-14T13:56:38.568Z,20.50
2018-06-14T13:59:08.091Z,20.60
2018-06-14T14:01:37.695Z,20.80
2018-06-14T14:04:07.257Z,20.90
2018-06-14T14:06:36.837Z,20.90
2018-06-14T14:09:08.864Z,20.90
2018-06-14T14:11:38.390Z,20.90
2018-06-14T14:14:07.887Z,20.80
2018-06-14T14:16:37.472Z,21.00
2018-06-14T14:19:06.987Z,21.20
2018-06-14T14:21:36.552Z,21.50
2018-06-14T14:24:06.032Z,21.60
2018-06-14T14:26:35.586Z,21.80
2018-06-14T14:29:05.160Z,21.90
2018-06-14T14:31:34.790Z,22.10
2018-06-14T14:34:04.384Z,22.20
2018-06-14T14:36:33.885Z,22.40
2018-06-14T14:39:03.839Z,22.80
2018-06-14T14:41:33.450Z,22.90
2018-06-14T14:44:02.987Z,23.00
2018-06-14T14:46:32.499Z,22.80
2018-06-14T14:49:02.156Z,22.40
2018-06-14T14:51:31.685Z,21.90
2018-06-14T14:54:01.331Z,21.90
2018-06-14T14:56:31.186Z,21.90
2018-06-14T14:59:00.761Z,22.00
2018-06-14T15:01:30.271Z,22.80
2018-06-14T15:03:59.811Z,24.40
2018-06-14T15:06:29.431Z,26.70
2018-06-14T15:08:59.318Z,28.60
2018-06-14T15:11:28.849Z,29.90
2018-06-14T15:13:58.357Z,30.90
2018-06-14T15:16:27.943Z,32.10
2018-06-14T15:18:57.478Z,33.50
2018-06-14T15:21:27.269Z,34.10
2018-06-14T15:23:56.772Z,34.90
2018-06-14T15:26:26.398Z,36.10
2018-06-14T15:28:56.574Z,37.00
2018-06-14T15:31:26.120Z,37.90
2018-06-14T15:33:55.708Z,37.20
2018-06-14T15:36:25.270Z,36.50
2018-06-14T15:41:24.023Z,35.70
2018-06-14T15:43:53.693Z,35.30
2018-06-14T15:48:52.412Z,34.00
2018-06-14T15:51:21.972Z,32.90
2018-06-14T15:53:51.594Z,32.00
2018-06-14T15:56:32.225Z,31.00
2018-06-14T15:59:02.498Z,29.80
2018-06-14T16:01:32.055Z,28.70
2018-06-14T16:04:01.965Z,27.80
2018-06-14T16:06:31.567Z,27.30
2018-06-14T16:09:01.934Z,27.50
2018-06-14T16:11:31.470Z,27.30
2018-06-14T16:14:01.067Z,27.20
2018-06-14T16:16:30.602Z,26.60
2018-06-14T16:19:00.150Z,26.30
2018-06-14T16:21:29.685Z,26.00
2018-06-14T16:23:59.348Z,25.30
2018-06-14T16:26:28.931Z,24.60
2018-06-14T16:28:58.520Z,24.00
2018-06-14T16:31:28.196Z,23.40
2018-06-14T16:33:57.764Z,22.90
2018-06-14T16:36:27.404Z,22.40
2018-06-14T16:41:26.189Z,22.10
2018-06-14T16:43:55.706Z,22.00
2018-06-14T16:46:25.263Z,22.00
2018-06-14T16:48:54.846Z,21.80
2018-06-14T16:51:24.368Z,21.60
2018-06-14T16:53:53.904Z,21.40
2018-06-14T16:56:23.467Z,21.20
2018-06-14T16:58:53.018Z,20.90
2018-06-14T17:01:22.756Z,20.80
2018-06-14T17:03:52.168Z,20.80
2018-06-14T17:06:21.713Z,20.70
2018-06-14T17:08:51.223Z,20.70
2018-06-14T17:11:20.787Z,20.70
2018-06-14T17:13:50.343Z,20.50
2018-06-14T17:16:19.894Z,20.30
2018-06-14T17:18:49.546Z,20.20
2018-06-14T17:21:19.123Z,20.10
2018-06-14T17:23:48.637Z,19.80
2018-06-14T17:26:18.214Z,19.70
2018-06-14T17:28:47.775Z,19.50
2018-06-14T17:31:17.302Z,19.30
2018-06-14T17:33:46.899Z,19.30
2018-06-14T17:36:16.519Z,19.30
2018-06-14T17:38:46.019Z,19.30
2018-06-14T17:41:15.723Z,19.40
2018-06-14T17:43:45.196Z,19.50
2018-06-14T17:46:14.720Z,19.50
2018-06-14T17:48:44.305Z,19.60
2018-06-14T17:51:14.180Z,19.60
2018-06-14T17:53:43.782Z,19.60
2018-06-14T17:56:13.616Z,19.60
2018-06-14T17:58:43.971Z,19.60
2018-06-14T18:01:13.580Z,19.50
2018-06-14T18:03:43.139Z,19.30
2018-06-14T18:06:12.695Z,19.20
2018-06-14T18:08:42.278Z,19.00
2018-06-14T18:11:11.857Z,18.90
2018-06-14T18:13:42.275Z,18.80
2018-06-14T18:16:11.832Z,18.80
2018-06-14T18:18:42.665Z,18.80
2018-06-14T18:21:12.200Z,18.70
2018-06-14T18:23:41.763Z,18.70
2018-06-14T18:26:11.344Z,18.50
2018-06-14T18:28:40.888Z,18.40
2018-06-14T18:31:10.515Z,18.40
2018-06-14T18:33:40.034Z,18.30
2018-06-14T18:36:09.724Z,18.20
2018-06-14T18:38:39.260Z,18.10
2018-06-14T18:41:08.888Z,18.00
2018-06-14T18:43:38.501Z,18.00
2018-06-14T18:46:08.077Z,17.90
2018-06-14T18:48:37.682Z,17.90
2018-06-14T18:51:07.235Z,17.80
2018-06-14T18:53:37.885Z,17.70
2018-06-14T18:56:07.584Z,17.70
2018-06-14T18:58:37.179Z,17.50
2018-06-14T19:01:06.766Z,17.50
2018-06-14T19:03:36.428Z,17.30
2018-06-14T19:06:06.010Z,17.20
2018-06-14T19:08:35.560Z,17.20
2018-06-14T19:11:05.255Z,17.10
2018-06-14T19:13:34.875Z,17.00
2018-06-14T19:16:04.492Z,16.90
2018-06-14T19:18:34.036Z,16.80
2018-06-14T19:21:03.816Z,16.80
2018-06-14T19:23:33.391Z,16.70
2018-06-14T19:26:03.017Z,16.70
2018-06-14T19:28:32.603Z,16.60
2018-06-14T19:31:02.222Z,16.60
2018-06-14T19:33:31.784Z,16.50
2018-06-14T19:36:01.395Z,16.40
2018-06-14T19:38:31.021Z,16.30
2018-06-14T19:41:00.568Z,16.20
2018-06-14T19:43:30.172Z,16.10
2018-06-14T19:45:59.773Z,16.10
2018-06-14T19:48:29.319Z,16.00
2018-06-14T19:50:58.943Z,15.90
2018-06-14T19:53:28.491Z,15.90
2018-06-14T19:55:58.229Z,15.80
2018-06-14T19:58:28.077Z,15.70
2018-06-14T20:00:57.659Z,15.60
2018-06-14T20:03:27.231Z,15.60
2018-06-14T20:05:56.780Z,15.50
2018-06-14T20:08:26.345Z,15.50
2018-06-14T20:10:55.992Z,15.40
2018-06-14T20:13:25.666Z,15.40
2018-06-14T20:15:55.223Z,15.30
2018-06-14T20:18:24.830Z,15.20
2018-06-14T20:20:54.480Z,15.10
2018-06-14T20:23:23.974Z,15.10
2018-06-14T20:25:54.453Z,15.00
2018-06-14T20:28:24.142Z,15.00
2018-06-14T20:33:22.876Z,14.80
2018-06-14T20:35:52.476Z,14.90
2018-06-14T20:38:22.075Z,14.90
2018-06-14T20:40:51.704Z,15.00
2018-06-14T20:43:21.215Z,15.00
2018-06-14T20:45:50.855Z,15.00
2018-06-14T20:48:20.516Z,15.00
2018-06-14T20:50:50.076Z,15.00
2018-06-14T20:53:19.660Z,15.00
2018-06-14T20:55:49.223Z,14.90
2018-06-14T20:58:18.811Z,14.90
2018-06-14T21:00:48.545Z,14.70
2018-06-14T21:03:18.030Z,14.60
2018-06-14T21:05:47.627Z,14.50
2018-06-14T21:08:17.155Z,14.50
2018-06-14T21:10:46.725Z,14.50
2018-06-14T21:13:16.230Z,14.50
2018-06-14T21:15:46.254Z,14.50
2018-06-14T21:18:15.814Z,14.40
2018-06-14T21:20:45.340Z,14.30
2018-06-14T21:23:14.856Z,14.30
2018-06-14T21:25:44.361Z,14.20
2018-06-14T21:28:13.846Z,14.20
2018-06-14T21:30:43.391Z,14.10
2018-06-14T21:33:12.971Z,14.10
2018-06-14T21:35:42.476Z,14.00
2018-06-14T21:38:12.035Z,13.90
2018-06-14T21:40:41.602Z,13.90
2018-06-14T21:43:11.095Z,13.80
2018-06-14T21:45:40.600Z,13.80
2018-06-14T21:48:10.214Z,13.70
2018-06-14T21:50:39.749Z,13.70
2018-06-14T21:53:09.227Z,13.60
2018-06-14T21:55:38.768Z,13.60
2018-06-14T21:58:08.267Z,13.60
2018-06-14T22:00:37.879Z,13.60
2018-06-14T22:03:12.668Z,13.50
2018-06-14T22:05:42.238Z,13.40
2018-06-14T22:08:11.728Z,13.40
2018-06-14T22:10:41.260Z,13.40
2018-06-14T22:13:10.720Z,13.30
2018-06-14T22:15:40.248Z,13.20
2018-06-14T22:18:09.790Z,13.20
2018-06-14T22:20:39.289Z,13.20
2018-06-14T22:23:08.805Z,13.20
2018-06-14T22:25:38.266Z,13.10
2018-06-14T22:28:07.818Z,13.10
2018-06-14T22:30:37.991Z,13.10
2018-06-14T22:33:18.917Z,12.90
2018-06-14T22:35:48.403Z,12.90
2018-06-14T22:38:18.215Z,12.90
2018-06-14T22:40:47.861Z,12.80
2018-06-14T22:43:17.357Z,12.70
2018-06-14T22:45:46.931Z,12.70
2018-06-14T22:48:16.423Z,12.70
2018-06-14T22:50:57.271Z,12.60
2018-06-14T22:53:26.805Z,12.50
2018-06-14T22:55:56.306Z,12.50
2018-06-14T22:58:25.770Z,12.50
2018-06-14T23:01:50.223Z,12.60
2018-06-14T23:04:21.214Z,12.50
2018-06-14T23:06:50.812Z,12.50
2018-06-14T23:10:36.645Z,12.50
2018-06-14T23:13:07.023Z,12.50
2018-06-14T23:15:36.564Z,12.50
2018-06-14T23:18:06.006Z,12.50
2018-06-14T23:20:36.042Z,12.40
2018-06-14T23:23:06.368Z,12.40
2018-06-14T23:25:36.592Z,12.30
2018-06-14T23:28:06.134Z,12.30
2018-06-14T23:30:35.631Z,12.30
2018-06-14T23:33:05.127Z,12.30
2018-06-14T23:35:34.639Z,12.30
2018-06-14T23:38:04.300Z,12.30
2018-06-14T23:40:33.797Z,12.30
2018-06-14T23:43:03.321Z,12.40
2018-06-14T23:45:32.818Z,12.40
2018-06-14T23:48:02.295Z,12.40
2018-06-14T23:50:31.771Z,12.40
2018-06-14T23:53:01.313Z,12.50
2018-06-14T23:55:30.746Z,12.50
2018-06-14T23:58:00.211Z,12.50
